Time;durP1;ratioP1;P1;durP2;ratioP2;P2;SDS_P1;SDS_P2;PMS_P1;PMS_P2;Temp;Humidity;BMP_temperature;BMP_pressure;BME280_temperature;BME280_humidity;BME280_pressure;Samples;Min_cycle;Max_cycle;Signal;HPM_P1;HPM_P2
2022/06/12 00:00:49;;;;;;;19.63;3.10;;;18.30;67.20;;;;;;5018860;28;20045;-74
2022/06/12 00:03:17;;;;;;;16.58;3.30;;;18.20;67.50;;;;;;5014786;28;20042;-73
2022/06/12 00:05:47;;;;;;;14.48;3.13;;;18.10;67.90;;;;;;5012319;28;20040;-73
2022/06/12 00:08:14;;;;;;;21.65;3.15;;;18.10;68.20;;;;;;5002999;28;20056;-73
2022/06/12 00:10:42;;;;;;;13.10;2.78;;;18.10;68.20;;;;;;5010157;28;20428;-73
2022/06/12 00:13:09;;;;;;;14.15;3.00;;;18.10;68.50;;;;;;5007199;28;20044;-73
2022/06/12 00:15:35;;;;;;;16.08;3.20;;;18.10;68.60;;;;;;5014369;28;20033;-73
2022/06/12 00:18:00;;;;;;;21.15;3.35;;;18.10;68.80;;;;;;5007307;28;20557;-73
2022/06/12 00:20:27;;;;;;;16.20;3.60;;;18.00;68.90;;;;;;5019989;28;20030;-73
2022/06/12 00:22:54;;;;;;;19.08;3.35;;;18.00;69.00;;;;;;5014128;28;20029;-73
2022/06/12 00:25:22;;;;;;;18.85;3.58;;;18.00;69.00;;;;;;5023280;28;20061;-73
2022/06/12 00:27:48;;;;;;;22.48;3.55;;;18.00;69.10;;;;;;5026391;28;20026;-72
2022/06/12 00:30:16;;;;;;;20.27;3.75;;;18.00;69.10;;;;;;5033044;28;20512;-73
2022/06/12 00:32:44;;;;;;;21.40;3.70;;;18.00;69.20;;;;;;5028453;28;20028;-73
2022/06/12 00:35:10;;;;;;;15.18;3.30;;;17.90;69.30;;;;;;5039130;28;20033;-72
2022/06/12 00:37:37;;;;;;;17.23;3.35;;;17.90;69.30;;;;;;5037611;28;20603;-73
2022/06/12 00:40:05;;;;;;;23.85;3.78;;;17.90;69.40;;;;;;5029325;28;20066;-73
2022/06/12 00:42:38;;;;;;;17.50;3.78;;;17.90;69.50;;;;;;5036301;28;20482;-73
2022/06/12 00:45:42;;;;;;;17.15;3.85;;;17.90;69.50;;;;;;5035436;28;20099;-73
2022/06/12 00:48:21;;;;;;;15.43;3.25;;;17.90;69.70;;;;;;5005292;28;20042;-72
2022/06/12 00:50:54;;;;;;;18.58;3.30;;;17.80;69.70;;;;;;5005933;28;20072;-73
2022/06/12 00:53:28;;;;;;;15.30;3.03;;;17.80;69.70;;;;;;5008577;28;20045;-72
2022/06/12 00:55:59;;;;;;;14.02;3.10;;;17.80;69.60;;;;;;5006083;28;20030;-73
2022/06/12 00:58:30;;;;;;;16.27;3.53;;;17.70;69.60;;;;;;5003512;28;20075;-73
2022/06/12 01:00:56;;;;;;;13.95;3.28;;;17.70;69.90;;;;;;5015767;28;20543;-72
2022/06/12 01:03:22;;;;;;;14.52;3.40;;;17.60;69.80;;;;;;5013426;28;20034;-72
2022/06/12 01:08:34;;;;;;;17.90;3.60;;;17.50;69.70;;;;;;5007138;28;20504;-72
2022/06/12 01:11:06;;;;;;;15.27;3.38;;;17.40;69.50;;;;;;5008387;28;20530;-73
2022/06/12 01:13:44;;;;;;;18.52;3.42;;;17.40;69.60;;;;;;4996841;28;20028;-73
2022/06/12 01:16:18;;;;;;;17.33;3.25;;;17.40;69.10;;;;;;5018403;28;20037;-73
2022/06/12 01:18:53;;;;;;;19.73;3.28;;;17.30;69.90;;;;;;5010935;28;20038;-73
2022/06/12 01:21:47;;;;;;;14.25;3.33;;;17.30;70.00;;;;;;4999231;28;20053;-73
2022/06/12 01:24:29;;;;;;;18.05;3.88;;;17.30;70.20;;;;;;5010818;28;20052;-73
2022/06/12 01:27:32;;;;;;;14.45;2.78;;;17.30;70.30;;;;;;5029569;28;20538;-73
2022/06/12 01:30:19;;;;;;;15.32;3.40;;;17.30;70.40;;;;;;5028192;28;20064;-73
2022/06/12 01:32:55;;;;;;;16.45;3.40;;;17.20;70.60;;;;;;5039671;28;20132;-73
2022/06/12 01:35:53;;;;;;;17.55;3.95;;;17.20;70.70;;;;;;5014316;28;20546;-73
2022/06/12 01:38:52;;;;;;;16.63;3.60;;;17.20;70.80;;;;;;5034068;28;20037;-73
2022/06/12 01:41:45;;;;;;;21.75;3.65;;;17.20;71.20;;;;;;5025238;28;20052;-73
2022/06/12 01:44:29;;;;;;;16.60;3.67;;;17.20;71.40;;;;;;5024736;28;20084;-72
2022/06/12 01:46:59;;;;;;;17.80;3.97;;;17.10;71.30;;;;;;5020206;28;20073;-73
2022/06/12 01:49:28;;;;;;;15.02;4.00;;;17.10;71.30;;;;;;5015747;28;20524;-72
2022/06/12 01:52:28;;;;;;;19.38;4.20;;;17.10;71.50;;;;;;5022952;28;20037;-73
2022/06/12 01:55:18;;;;;;;16.67;4.10;;;17.10;71.90;;;;;;5016610;28;20065;-72
2022/06/12 01:58:06;;;;;;;13.68;3.63;;;17.10;72.20;;;;;;5016782;28;20090;-73
2022/06/12 02:00:33;;;;;;;12.65;3.55;;;17.10;72.20;;;;;;5006138;28;20053;-72
2022/06/12 02:03:01;;;;;;;17.73;4.10;;;17.00;72.10;;;;;;5015681;28;20030;-73
2022/06/12 02:05:37;;;;;;;11.95;3.35;;;17.00;72.20;;;;;;5021442;28;20124;-73
2022/06/12 02:08:25;;;;;;;17.08;4.07;;;17.00;72.20;;;;;;5017113;28;20038;-72
2022/06/12 02:13:53;;;;;;;15.00;3.20;;;16.90;72.30;;;;;;5023439;28;20108;-73
2022/06/12 02:16:27;;;;;;;9.63;3.22;;;16.90;71.90;;;;;;5024185;28;20053;-73
2022/06/12 02:18:58;;;;;;;15.77;3.58;;;16.80;71.50;;;;;;5034782;28;20436;-73
2022/06/12 02:21:41;;;;;;;13.60;3.15;;;16.70;71.40;;;;;;5035007;28;20096;-73
2022/06/12 02:24:09;;;;;;;13.55;3.20;;;16.70;71.30;;;;;;5031526;28;20545;-72
2022/06/12 02:26:44;;;;;;;11.23;2.72;;;16.60;71.30;;;;;;5039247;28;20033;-73
2022/06/12 02:29:16;;;;;;;13.52;3.30;;;16.60;71.40;;;;;;5028909;28;20680;-73
2022/06/12 02:31:46;;;;;;;11.85;2.70;;;16.60;71.30;;;;;;5035637;28;20025;-73
2022/06/12 02:34:18;;;;;;;11.45;3.53;;;16.60;71.10;;;;;;5040344;28;20039;-72
2022/06/12 02:36:50;;;;;;;9.05;2.78;;;16.50;71.00;;;;;;5042489;28;20400;-73
2022/06/12 02:39:26;;;;;;;11.10;2.90;;;16.40;71.10;;;;;;5038471;28;20488;-72
2022/06/12 02:42:23;;;;;;;14.82;4.00;;;16.40;71.30;;;;;;5027837;28;20041;-73
2022/06/12 02:45:10;;;;;;;12.77;2.95;;;16.40;71.60;;;;;;5019079;28;20057;-72
2022/06/12 02:47:38;;;;;;;15.38;3.28;;;16.40;72.20;;;;;;5027984;28;20481;-73
2022/06/12 02:50:06;;;;;;;14.40;3.97;;;16.40;72.40;;;;;;5040995;28;20029;-72
2022/06/12 02:52:47;;;;;;;11.95;3.20;;;16.40;72.80;;;;;;5034310;28;20447;-73
2022/06/12 02:55:24;;;;;;;14.18;3.58;;;16.40;73.00;;;;;;5030923;28;20098;-73
2022/06/12 02:58:08;;;;;;;14.02;3.55;;;16.40;73.10;;;;;;5025678;28;20108;-72
2022/06/12 03:00:57;;;;;;;18.00;3.38;;;16.40;73.40;;;;;;5030392;28;20044;-73
2022/06/12 03:03:47;;;;;;;17.13;3.20;;;16.40;73.70;;;;;;5025861;28;20029;-73
2022/06/12 03:06:14;;;;;;;15.00;3.55;;;16.50;73.90;;;;;;5034879;28;20090;-73
2022/06/12 03:08:48;;;;;;;16.35;4.22;;;16.50;73.90;;;;;;5029420;28;20507;-73
2022/06/12 03:11:24;;;;;;;19.55;4.18;;;16.40;74.20;;;;;;5019401;28;20041;-73
2022/06/12 03:13:52;;;;;;;17.45;4.35;;;16.40;74.70;;;;;;5038250;28;20053;-72
2022/06/12 03:16:28;;;;;;;21.27;4.57;;;16.50;75.00;;;;;;5032669;28;20532;-73
2022/06/12 03:19:08;;;;;;;19.65;4.32;;;16.50;75.30;;;;;;5035768;28;20057;-73
2022/06/12 03:21:39;;;;;;;19.25;4.25;;;16.40;75.20;;;;;;5038001;28;20025;-73
2022/06/12 03:24:39;;;;;;;14.85;3.83;;;16.50;75.50;;;;;;5037778;28;20045;-73
2022/06/12 03:27:14;;;;;;;18.45;4.63;;;16.50;75.60;;;;;;5028891;28;20045;-73
2022/06/12 03:29:54;;;;;;;15.73;4.13;;;16.50;74.80;;;;;;5026337;28;20496;-73
2022/06/12 03:32:31;;;;;;;21.25;4.90;;;16.50;75.70;;;;;;5033421;28;27333;-72
2022/06/12 03:35:25;;;;;;;22.60;4.50;;;16.50;75.60;;;;;;5039294;28;20029;-73
2022/06/12 03:38:19;;;;;;;19.55;4.80;;;16.40;75.70;;;;;;5041155;28;20124;-73
2022/06/12 03:40:53;;;;;;;21.17;4.88;;;16.40;75.80;;;;;;5042673;28;20021;-73
2022/06/12 03:43:32;;;;;;;22.45;5.07;;;16.40;76.70;;;;;;5033663;28;20033;-73
2022/06/12 03:46:15;;;;;;;17.40;4.95;;;16.40;76.00;;;;;;5028517;28;20033;-73
2022/06/12 03:49:02;;;;;;;24.50;4.80;;;16.40;75.30;;;;;;5034355;28;20029;-73
2022/06/12 03:51:33;;;;;;;12.48;3.63;;;16.30;76.20;;;;;;5030991;28;20025;-73
2022/06/12 03:54:14;;;;;;;17.38;4.30;;;16.30;76.00;;;;;;5037428;28;20496;-73
2022/06/12 04:00:29;;;;;;;14.20;4.07;;;16.30;76.10;;;;;;5027448;28;20087;-72
2022/06/12 04:02:57;;;;;;;16.75;4.70;;;16.20;76.20;;;;;;5022848;28;20424;-73
2022/06/12 04:05:35;;;;;;;16.52;4.20;;;16.20;76.00;;;;;;5039630;28;20488;-73
2022/06/12 04:08:03;;;;;;;16.70;4.55;;;16.20;76.30;;;;;;5045428;28;20526;-73
2022/06/12 04:10:33;;;;;;;14.55;3.75;;;16.20;76.50;;;;;;5036520;28;20114;-72
2022/06/12 04:13:00;;;;;;;19.30;4.60;;;16.20;76.60;;;;;;5040637;28;20032;-72
2022/06/12 04:15:30;;;;;;;14.05;4.35;;;16.20;76.70;;;;;;5039373;28;20067;-72
2022/06/12 04:17:56;;;;;;;14.43;3.90;;;16.20;76.80;;;;;;5024104;28;20465;-72
2022/06/12 04:20:28;;;;;;;12.27;4.00;;;16.20;76.50;;;;;;5044409;28;20408;-72
2022/06/12 04:23:04;;;;;;;17.00;4.30;;;16.20;76.20;;;;;;5040508;28;20471;-72
2022/06/12 04:25:40;;;;;;;15.57;4.00;;;16.20;76.10;;;;;;5039278;28;20098;-73
2022/06/12 04:28:23;;;;;;;13.30;4.03;;;16.20;76.00;;;;;;5041159;28;20067;-72
2022/06/12 04:30:49;;;;;;;14.48;4.00;;;16.10;75.60;;;;;;5035800;28;20082;-72
2022/06/12 04:33:24;;;;;;;10.27;3.40;;;16.10;75.60;;;;;;5042252;28;20033;-73
2022/06/12 04:35:57;;;;;;;11.52;3.72;;;16.10;75.80;;;;;;5040879;28;20039;-73
2022/06/12 04:38:24;;;;;;;11.93;3.60;;;16.10;75.90;;;;;;5044010;28;20041;-73
2022/06/12 04:40:51;;;;;;;15.32;4.57;;;16.10;76.00;;;;;;5040267;28;20025;-73
2022/06/12 04:43:17;;;;;;;14.07;4.32;;;16.10;76.30;;;;;;5044322;28;20033;-73
2022/06/12 04:45:43;;;;;;;17.02;4.10;;;16.10;76.60;;;;;;5033286;28;20091;-73
2022/06/12 04:48:15;;;;;;;16.00;4.50;;;16.00;76.50;;;;;;5031901;28;20036;-73
2022/06/12 04:50:42;;;;;;;15.70;4.40;;;16.00;76.50;;;;;;5038171;28;20148;-73
2022/06/12 04:53:07;;;;;;;17.73;4.57;;;16.10;76.50;;;;;;5045125;28;20033;-72
2022/06/12 04:55:33;;;;;;;15.32;4.53;;;16.10;76.60;;;;;;5032666;28;20554;-73
2022/06/12 04:58:00;;;;;;;14.10;4.50;;;16.10;77.50;;;;;;5030241;28;20120;-73
2022/06/12 05:00:26;;;;;;;14.73;4.43;;;16.10;76.50;;;;;;5030785;28;20030;-73
2022/06/12 05:02:52;;;;;;;13.77;4.30;;;16.10;76.60;;;;;;5034470;28;20038;-73
2022/06/12 05:05:18;;;;;;;11.65;4.13;;;16.10;76.80;;;;;;5035583;28;20030;-73
2022/06/12 05:07:43;;;;;;;15.38;3.55;;;16.10;76.70;;;;;;5043242;28;20033;-73
2022/06/12 05:10:14;;;;;;;12.02;4.10;;;16.10;76.70;;;;;;5044155;28;20038;-73
2022/06/12 05:12:39;;;;;;;14.90;3.83;;;16.20;76.80;;;;;;5031084;28;20065;-73
2022/06/12 05:15:07;;;;;;;16.50;4.28;;;16.20;76.80;;;;;;5037494;28;20065;-73
2022/06/12 05:17:32;;;;;;;13.70;3.95;;;16.30;77.10;;;;;;5030031;28;20033;-72
2022/06/12 05:19:59;;;;;;;15.05;4.32;;;16.30;77.30;;;;;;5045083;28;20021;-72
2022/06/12 05:22:25;;;;;;;14.85;4.80;;;16.30;77.30;;;;;;5044073;28;20035;-72
2022/06/12 05:24:52;;;;;;;15.18;5.18;;;16.40;77.50;;;;;;5031268;28;20049;-72
2022/06/12 05:27:22;;;;;;;16.70;4.53;;;16.50;77.90;;;;;;5026807;28;20044;-72
2022/06/12 05:29:48;;;;;;;16.98;4.97;;;16.50;78.10;;;;;;5031580;28;20857;-72
2022/06/12 05:32:17;;;;;;;14.43;4.60;;;16.60;78.10;;;;;;5029300;28;20336;-73
2022/06/12 05:34:43;;;;;;;14.38;4.28;;;16.70;78.40;;;;;;5046412;28;20048;-72
2022/06/12 05:37:10;;;;;;;18.90;4.68;;;16.70;78.70;;;;;;5033417;28;20030;-72
2022/06/12 05:39:36;;;;;;;15.52;4.75;;;16.80;78.70;;;;;;5030924;28;20033;-73
2022/06/12 05:42:02;;;;;;;16.55;4.63;;;16.90;78.50;;;;;;5031026;28;20041;-73
2022/06/12 05:44:28;;;;;;;19.85;4.90;;;17.00;78.40;;;;;;5035368;28;20022;-72
2022/06/12 05:46:53;;;;;;;21.45;4.95;;;17.10;78.30;;;;;;5055942;28;20045;-73
2022/06/12 05:49:19;;;;;;;20.45;5.32;;;17.20;78.50;;;;;;5038027;28;20026;-73
2022/06/12 05:51:45;;;;;;;17.88;4.88;;;17.30;78.60;;;;;;5040055;28;20033;-73
2022/06/12 05:54:11;;;;;;;19.27;4.80;;;17.40;78.70;;;;;;5032703;28;20018;-73
2022/06/12 05:56:37;;;;;;;21.27;5.45;;;17.60;77.40;;;;;;5027333;28;20034;-73
2022/06/12 05:59:04;;;;;;;21.60;5.15;;;17.60;78.20;;;;;;5044170;28;20095;-73
2022/06/12 06:01:30;;;;;;;13.85;4.50;;;17.80;78.00;;;;;;5040929;28;20503;-73
2022/06/12 06:03:56;;;;;;;18.90;4.38;;;17.90;77.80;;;;;;5037682;28;20029;-72
2022/06/12 06:06:26;;;;;;;19.70;4.88;;;18.00;78.40;;;;;;5040102;28;20041;-72
2022/06/12 06:08:52;;;;;;;20.48;4.78;;;18.20;77.20;;;;;;5041931;28;20017;-73
2022/06/12 06:11:19;;;;;;;20.42;4.30;;;18.30;76.90;;;;;;5029612;28;20116;-72
2022/06/12 06:13:45;;;;;;;15.70;3.75;;;18.40;76.70;;;;;;5032669;28;20017;-72
2022/06/12 06:16:11;;;;;;;21.17;4.22;;;18.50;76.60;;;;;;5029371;28;20036;-72
2022/06/12 06:18:39;;;;;;;19.20;4.10;;;18.60;76.60;;;;;;5029288;28;20104;-72
2022/06/12 06:21:06;;;;;;;21.48;3.97;;;18.70;76.40;;;;;;5027210;28;20045;-72
2022/06/12 06:23:32;;;;;;;19.67;4.25;;;18.80;76.40;;;;;;5040796;28;20112;-72
2022/06/12 06:25:57;;;;;;;19.73;4.03;;;18.90;76.00;;;;;;5039387;28;20113;-72
2022/06/12 06:28:23;;;;;;;19.45;4.55;;;19.00;75.40;;;;;;5041603;28;20032;-72
2022/06/12 06:30:49;;;;;;;17.52;4.35;;;19.10;74.80;;;;;;5032179;28;20083;-72
2022/06/12 06:33:15;;;;;;;15.40;3.90;;;19.20;74.20;;;;;;5030067;28;20549;-72
2022/06/12 06:35:41;;;;;;;21.25;4.55;;;19.20;73.70;;;;;;5039030;28;20029;-72
2022/06/12 06:38:07;;;;;;;20.25;4.35;;;19.30;73.30;;;;;;5032829;28;20036;-72
2022/06/12 06:40:34;;;;;;;21.85;4.72;;;19.50;72.60;;;;;;5037101;28;20041;-72
2022/06/12 06:43:00;;;;;;;14.05;3.60;;;20.00;71.00;;;;;;5027616;28;20033;-72
2022/06/12 06:48:11;;;;;;;17.42;4.03;;;20.30;70.40;;;;;;5030965;28;20079;-72
2022/06/12 06:50:38;;;;;;;15.25;3.97;;;20.70;68.10;;;;;;5034437;28;20056;-72
2022/06/12 06:53:05;;;;;;;18.92;3.83;;;21.30;64.90;;;;;;5034924;28;20025;-72
2022/06/12 06:55:32;;;;;;;18.25;4.00;;;22.10;60.80;;;;;;5032114;28;20030;-71
2022/06/12 06:57:58;;;;;;;16.80;3.60;;;24.10;51.60;;;;;;5028066;28;20492;-74
2022/06/12 07:00:29;;;;;;;14.15;3.75;;;24.00;52.00;;;;;;5023745;28;20025;-76
2022/06/12 07:02:55;;;;;;;16.58;3.90;;;25.10;48.70;;;;;;5028475;28;20018;-72
2022/06/12 07:05:21;;;;;;;15.93;3.60;;;26.00;45.20;;;;;;5028330;28;20144;-72
2022/06/12 07:07:48;;;;;;;14.73;3.85;;;26.70;42.70;;;;;;5028216;28;20563;-75
2022/06/12 07:10:18;;;;;;;18.80;4.20;;;27.20;40.90;;;;;;5034055;28;20033;-73
2022/06/12 07:12:44;;;;;;;16.55;3.90;;;27.40;40.80;;;;;;5034794;28;20024;-74
2022/06/12 07:15:11;;;;;;;16.23;3.60;;;27.60;39.50;;;;;;5040950;28;20033;-75
2022/06/12 07:17:37;;;;;;;15.57;4.07;;;28.00;38.30;;;;;;5027747;28;20038;-74
2022/06/12 07:20:03;;;;;;;15.00;3.55;;;28.40;37.80;;;;;;5042503;28;20084;-74
2022/06/12 07:22:29;;;;;;;15.52;3.72;;;28.90;36.80;;;;;;5038682;28;20032;-74
2022/06/12 07:24:55;;;;;;;17.80;3.42;;;29.30;36.00;;;;;;5036261;28;20045;-74
2022/06/12 07:27:20;;;;;;;19.02;4.10;;;29.60;35.10;;;;;;5030476;28;20073;-73
2022/06/12 07:29:46;;;;;;;16.95;3.47;;;30.00;34.10;;;;;;5033225;28;20387;-74
2022/06/12 07:32:12;;;;;;;14.98;3.72;;;30.30;33.20;;;;;;5026473;28;20133;-74
2022/06/12 07:34:38;;;;;;;19.67;3.90;;;30.50;32.50;;;;;;5040399;28;20022;-72
2022/06/12 07:37:06;;;;;;;15.10;4.00;;;30.40;32.20;;;;;;5034880;28;20504;-74
2022/06/12 07:39:33;;;;;;;15.80;4.05;;;29.90;32.60;;;;;;5033458;28;20059;-74
2022/06/12 07:41:59;;;;;;;18.05;4.15;;;29.50;33.80;;;;;;5036260;28;20029;-75
2022/06/12 07:44:30;;;;;;;21.10;4.75;;;29.00;34.70;;;;;;5031802;28;20033;-74
2022/06/12 07:46:59;;;;;;;14.07;3.92;;;27.30;37.40;;;;;;5031019;28;20504;-74
2022/06/12 07:49:27;;;;;;;17.30;4.50;;;27.20;38.50;;;;;;5033048;28;20087;-74
2022/06/12 07:51:54;;;;;;;20.00;5.20;;;26.10;40.90;;;;;;5039451;28;20059;-74
2022/06/12 07:54:20;;;;;;;14.93;3.83;;;25.30;43.00;;;;;;5029583;28;20036;-74
2022/06/12 07:56:47;;;;;;;16.75;3.40;;;24.80;44.60;;;;;;5030059;28;20037;-74
2022/06/12 07:59:13;;;;;;;15.07;3.47;;;24.70;46.00;;;;;;5031062;28;20076;-74
2022/06/12 08:01:39;;;;;;;14.77;3.40;;;24.70;46.10;;;;;;5032126;28;20049;-73
2022/06/12 08:04:06;;;;;;;14.30;3.35;;;24.70;44.70;;;;;;5030228;28;20087;-75
2022/06/12 08:06:33;;;;;;;15.68;3.40;;;24.70;44.60;;;;;;5028688;28;20029;-73
2022/06/12 08:08:59;;;;;;;14.45;3.20;;;24.60;45.20;;;;;;5036373;28;20087;-74
2022/06/12 08:11:26;;;;;;;12.80;2.95;;;24.60;44.90;;;;;;5022842;28;20029;-75
2022/06/12 08:13:53;;;;;;;17.27;3.50;;;24.50;43.80;;;;;;5032063;28;20021;-74
2022/06/12 08:16:20;;;;;;;12.82;3.10;;;24.50;44.20;;;;;;5034718;28;20079;-75
2022/06/12 08:18:46;;;;;;;16.83;3.50;;;24.50;44.40;;;;;;5033045;28;20102;-75
2022/06/12 08:21:14;;;;;;;15.23;3.20;;;24.40;45.40;;;;;;5036780;28;20111;-75
2022/06/12 08:23:41;;;;;;;12.07;2.80;;;24.50;45.60;;;;;;5032088;28;20107;-74
2022/06/12 08:26:09;;;;;;;14.98;2.92;;;24.60;45.10;;;;;;5029819;28;20041;-71
2022/06/12 08:28:48;;;;;;;12.95;2.60;;;24.80;44.30;;;;;;5029436;28;20029;-70
2022/06/12 08:31:18;;;;;;;13.57;2.80;;;25.10;43.70;;;;;;5032058;28;20036;-70
2022/06/12 08:33:46;;;;;;;15.65;2.80;;;25.30;43.70;;;;;;5037042;28;20088;-71
2022/06/12 08:36:14;;;;;;;13.88;2.75;;;25.60;43.80;;;;;;5029791;28;20034;-71
2022/06/12 08:38:41;;;;;;;10.27;2.40;;;26.20;41.50;;;;;;5029708;28;20024;-71
2022/06/12 08:41:15;;;;;;;11.70;2.80;;;26.20;40.30;;;;;;5029247;28;20034;-70
2022/06/12 08:43:59;;;;;;;10.43;2.50;;;26.20;40.90;;;;;;5029872;28;20040;-72
2022/06/12 08:46:30;;;;;;;14.05;3.00;;;26.30;40.30;;;;;;5030381;28;20515;-71
2022/06/12 08:49:24;;;;;;;14.77;2.78;;;26.50;37.40;;;;;;5027666;28;20523;-72
2022/06/12 08:51:59;;;;;;;9.30;2.42;;;26.50;38.20;;;;;;5036457;28;20029;-72
2022/06/12 08:55:08;;;;;;;13.05;2.78;;;26.60;38.40;;;;;;5034383;28;20405;-71
2022/06/12 08:57:55;;;;;;;11.40;2.40;;;26.80;38.30;;;;;;4929032;29;20043;-71
2022/06/12 09:00:30;;;;;;;11.18;2.80;;;26.90;37.50;;;;;;4928762;29;20070;-73
2022/06/12 09:02:56;;;;;;;11.25;2.78;;;26.90;36.90;;;;;;4929641;29;20042;-74
2022/06/12 09:05:29;;;;;;;9.77;2.50;;;26.80;37.20;;;;;;4915049;29;20044;-74
2022/06/12 09:08:16;;;;;;;12.30;2.72;;;27.00;36.80;;;;;;4929895;29;20035;-74
2022/06/12 09:11:00;;;;;;;11.32;2.65;;;27.10;36.40;;;;;;4927477;29;20031;-74
2022/06/12 09:14:05;;;;;;;11.48;2.72;;;27.20;35.60;;;;;;4933368;29;20074;-74
2022/06/12 09:16:49;;;;;;;14.48;3.00;;;27.40;36.40;;;;;;4871845;29;20041;-74
2022/06/12 09:19:27;;;;;;;13.27;2.40;;;27.80;35.60;;;;;;4858045;29;20491;-75
2022/06/12 09:22:12;;;;;;;11.07;2.50;;;28.30;34.60;;;;;;4869991;29;20056;-74
2022/06/12 09:24:43;;;;;;;11.23;2.40;;;29.00;32.20;;;;;;4865834;29;20896;-74
2022/06/12 09:27:28;;;;;;;10.25;2.28;;;29.60;30.60;;;;;;4867760;29;20062;-74
2022/06/12 09:30:12;;;;;;;10.07;2.30;;;30.30;28.80;;;;;;4868892;29;20453;-75
2022/06/12 09:33:02;;;;;;;10.00;2.28;;;30.80;27.80;;;;;;4872958;29;20066;-75
2022/06/12 09:35:59;;;;;;;13.88;2.60;;;31.10;26.70;;;;;;4951233;28;20738;-74
2022/06/12 09:38:37;;;;;;;10.68;3.03;;;31.40;27.00;;;;;;4958598;28;20034;-72
2022/06/12 09:41:26;;;;;;;10.50;2.40;;;31.80;26.80;;;;;;4950664;28;20090;-73
2022/06/12 09:44:07;;;;;;;9.55;2.47;;;32.20;26.40;;;;;;4966683;28;20054;-71
2022/06/12 09:46:38;;;;;;;9.63;2.47;;;32.60;25.90;;;;;;4957886;28;20055;-72
2022/06/12 09:49:19;;;;;;;15.55;2.90;;;33.00;25.30;;;;;;4963126;28;20209;-71
2022/06/12 09:52:20;;;;;;;114.53;97.35;;;33.50;25.10;;;;;;4966129;28;20038;-71
2022/06/12 09:55:22;;;;;;;39.33;30.67;;;33.80;24.30;;;;;;4938386;28;20119;-71
2022/06/12 09:58:19;;;;;;;99.10;51.97;;;34.30;24.30;;;;;;4902406;29;20051;-72
2022/06/12 10:00:51;;;;;;;214.48;147.73;;;34.70;23.60;;;;;;4901788;29;20040;-73
2022/06/12 10:03:40;;;;;;;69.20;61.63;;;34.90;24.10;;;;;;4906159;29;20044;-72
2022/06/12 10:06:24;;;;;;;459.85;413.52;;;35.30;23.10;;;;;;4901032;29;20431;-73
2022/06/12 10:09:05;;;;;;;52.92;43.55;;;35.60;23.20;;;;;;4905325;29;20135;-72
2022/06/12 10:11:49;;;;;;;39.55;35.35;;;35.90;22.80;;;;;;4900863;29;20050;-71
2022/06/12 10:14:38;;;;;;;20.27;14.82;;;36.10;22.40;;;;;;4907334;29;20047;-73
2022/06/12 10:17:15;;;;;;;11.13;3.60;;;36.30;22.00;;;;;;4900881;29;20032;-73
2022/06/12 10:19:45;;;;;;;10.52;2.65;;;36.50;23.00;;;;;;4906477;29;20080;-72
2022/06/12 10:22:24;;;;;;;8.27;2.70;;;36.70;21.50;;;;;;4909635;29;20412;-72
2022/06/12 10:24:50;;;;;;;15.15;8.93;;;37.00;21.40;;;;;;4910841;29;20554;-72
2022/06/12 10:27:18;;;;;;;49.08;36.92;;;37.50;21.60;;;;;;4901723;29;20047;-73
2022/06/12 10:29:51;;;;;;;94.88;69.60;;;38.10;21.20;;;;;;4908673;29;20028;-72
2022/06/12 10:32:20;;;;;;;276.15;246.65;;;38.40;20.40;;;;;;4932668;28;20045;-73
2022/06/12 10:34:46;;;;;;;268.27;230.97;;;38.50;20.30;;;;;;5001984;28;20496;-74
2022/06/12 10:37:23;;;;;;;97.05;86.70;;;38.90;20.20;;;;;;5021652;28;20036;-73
2022/06/12 10:40:14;;;;;;;376.33;291.13;;;39.30;19.80;;;;;;5029006;28;20028;-72
2022/06/12 10:42:49;;;;;;;720.63;294.85;;;39.90;19.40;;;;;;5020861;28;20041;-72
2022/06/12 10:45:36;;;;;;;128.82;111.60;;;40.30;18.30;;;;;;5031630;28;20063;-71
2022/06/12 10:48:21;;;;;;;50.20;44.50;;;40.30;18.80;;;;;;5028213;28;20060;-71
2022/06/12 10:50:54;;;;;;;133.82;108.78;;;40.40;18.60;;;;;;5020509;28;20329;-71
2022/06/12 10:53:23;;;;;;;41.15;34.05;;;40.80;18.40;;;;;;5031136;28;20060;-71
2022/06/12 10:55:57;;;;;;;52.45;46.80;;;41.10;18.30;;;;;;5029850;28;20061;-72
2022/06/12 10:58:28;;;;;;;21.42;19.17;;;41.20;17.60;;;;;;5030731;28;20044;-74
2022/06/12 11:00:58;;;;;;;18.85;12.85;;;41.40;18.20;;;;;;5033214;28;20029;-73
2022/06/12 11:03:47;;;;;;;;;;;41.50;17.40;;;;;;5028923;28;20488;-73
2022/06/12 11:06:18;;;;;;;44.40;32.58;;;41.50;17.40;;;;;;5024118;28;20585;-74
2022/06/12 11:09:25;;;;;;;23.75;14.73;;;41.30;17.10;;;;;;5027573;28;20029;-72
2022/06/12 11:12:01;;;;;;;10.85;3.20;;;41.00;17.70;;;;;;5036529;28;20079;-72
2022/06/12 11:15:00;;;;;;;8.85;2.88;;;41.10;17.60;;;;;;5034111;28;20211;-71
2022/06/12 11:17:36;;;;;;;8.35;2.40;;;41.50;17.60;;;;;;5033989;28;20059;-72
2022/06/12 11:20:16;;;;;;;9.15;2.00;;;41.80;17.20;;;;;;5032638;28;20033;-74
2022/06/12 11:22:49;;;;;;;9.05;2.30;;;42.10;17.00;;;;;;5038034;28;20548;-73
2022/06/12 11:25:42;;;;;;;10.10;2.30;;;42.40;16.70;;;;;;5032211;28;20095;-73
2022/06/12 11:28:50;;;;;;;7.13;2.13;;;42.40;16.30;;;;;;5041575;28;20049;-71
2022/06/12 11:31:40;;;;;;;7.35;1.90;;;42.10;16.30;;;;;;5045397;28;20057;-70
2022/06/12 11:34:12;;;;;;;7.80;2.05;;;42.00;16.90;;;;;;5033385;28;20526;-73
2022/06/12 11:36:49;;;;;;;6.82;2.08;;;42.00;16.60;;;;;;5031603;28;20192;-71
2022/06/12 11:39:33;;;;;;;5.80;1.83;;;42.00;17.10;;;;;;5041368;28;20033;-73
2022/06/12 11:42:24;;;;;;;7.93;1.75;;;42.20;16.80;;;;;;5018378;28;20033;-71
2022/06/12 11:45:05;;;;;;;7.90;2.30;;;42.60;16.50;;;;;;5025157;28;20057;-71
2022/06/12 11:47:44;;;;;;;9.50;2.13;;;42.90;16.20;;;;;;5028706;28;20028;-72
2022/06/12 11:50:19;;;;;;;;;;;43.10;15.70;;;;;;5033374;28;20034;-73
2022/06/12 11:52:50;;;;;;;7.82;1.83;;;43.30;15.80;;;;;;5025296;28;19920;-72
2022/06/12 11:55:37;;;;;;;6.70;1.83;;;43.40;15.50;;;;;;5032124;28;20037;-73
2022/06/12 11:58:13;;;;;;;7.10;2.00;;;43.60;15.20;;;;;;5025225;28;20026;-71
2022/06/12 12:00:53;;;;;;;7.95;1.88;;;43.60;14.80;;;;;;5019661;28;20546;-72
2022/06/12 12:03:42;;;;;;;7.63;1.83;;;43.60;15.50;;;;;;5023943;28;20021;-72
2022/06/12 12:06:17;;;;;;;;;;;43.70;15.60;;;;;;4986768;28;20121;-72
2022/06/12 12:09:04;;;;;;;8.05;1.90;;;44.20;14.50;;;;;;4976983;28;19913;-73
2022/06/12 12:11:47;;;;;;;6.60;1.83;;;44.10;14.90;;;;;;4979862;28;20065;-72
2022/06/12 12:14:21;;;;;;;10.07;2.13;;;44.30;14.70;;;;;;4985222;28;20045;-72
2022/06/12 12:16:51;;;;;;;9.00;2.20;;;44.30;14.60;;;;;;4988084;28;20096;-72
2022/06/12 12:19:29;;;;;;;7.95;1.80;;;44.00;14.70;;;;;;4995170;28;20030;-71
2022/06/12 12:21:59;;;;;;;8.25;1.90;;;43.50;14.70;;;;;;4981751;28;20035;-71
2022/06/12 12:24:32;;;;;;;7.75;2.10;;;43.00;15.30;;;;;;4983664;28;20076;-71
2022/06/12 12:27:02;;;;;;;8.70;1.83;;;42.50;15.40;;;;;;4987263;28;20061;-71
2022/06/12 12:29:32;;;;;;;8.88;2.00;;;42.30;15.90;;;;;;4987535;28;20101;-70
2022/06/12 12:31:58;;;;;;;6.13;1.90;;;42.20;15.90;;;;;;4989093;28;20045;-70
2022/06/12 12:34:26;;;;;;;7.38;2.10;;;42.20;15.80;;;;;;4989434;28;20085;-70
2022/06/12 12:42:35;;;;;;;8.13;2.15;;;41.30;17.60;;;;;;4995519;28;20619;-70
2022/06/12 12:45:12;;;;;;;7.93;2.38;;;41.40;17.00;;;;;;5030078;28;20068;-72
2022/06/12 12:47:38;;;;;;;9.23;2.28;;;40.20;18.10;;;;;;5036678;28;20037;-71
2022/06/12 12:50:07;;;;;;;8.60;2.10;;;40.30;17.90;;;;;;5031737;28;20074;-70
2022/06/12 12:52:55;;;;;;;8.47;2.20;;;40.60;18.20;;;;;;5038215;28;20047;-71
2022/06/12 12:55:42;;;;;;;7.13;1.93;;;40.90;17.90;;;;;;5027563;28;20413;-70
2022/06/12 12:58:20;;;;;;;11.30;1.90;;;41.10;17.50;;;;;;5032169;28;20299;-71
2022/06/12 13:00:47;;;;;;;10.38;1.95;;;41.10;17.60;;;;;;5026620;28;20029;-73
2022/06/12 13:03:31;;;;;;;7.43;1.80;;;40.90;17.70;;;;;;5031814;28;20043;-69
2022/06/12 13:06:25;;;;;;;8.88;2.00;;;39.80;18.60;;;;;;5023656;28;20035;-72
2022/06/12 13:09:05;;;;;;;7.65;1.83;;;39.50;19.20;;;;;;5036725;28;20033;-71
2022/06/12 13:12:20;;;;;;;7.57;1.95;;;39.00;19.90;;;;;;5040498;28;20047;-70
2022/06/12 13:14:54;;;;;;;9.48;3.08;;;37.50;20.80;;;;;;4996686;28;20448;-72
2022/06/12 13:17:29;;;;;;;8.65;2.08;;;36.90;21.60;;;;;;5007296;28;20030;-71
2022/06/12 13:20:09;;;;;;;9.30;2.00;;;36.70;21.50;;;;;;5006829;28;20033;-70
2022/06/12 13:22:56;;;;;;;6.88;1.90;;;36.30;22.40;;;;;;5008876;28;20058;-72
2022/06/12 13:25:25;;;;;;;9.57;1.98;;;35.70;21.80;;;;;;5007399;28;20390;-72
2022/06/12 13:27:54;;;;;;;8.68;2.00;;;35.70;22.50;;;;;;5003494;28;20084;-71
2022/06/12 13:30:38;;;;;;;10.00;2.30;;;35.50;23.20;;;;;;5003485;28;20049;-71
2022/06/12 13:33:17;;;;;;;11.88;2.20;;;35.30;23.00;;;;;;5003655;28;20859;-71